Time;durP1;ratioP1;P1;durP2;ratioP2;P2;SDS_P1;SDS_P2;PMS_P1;PMS_P2;Temp;Humidity;BMP_temperature;BMP_pressure;BME280_temperature;BME280_humidity;BME280_pressure;Samples;Min_cycle;Max_cycle;Signal;HPM_P1;HPM_P2
2022/05/04 00:00:31;;;;;;;;;27.75;25.75;;;;;14.08;60.87;101267.53;5057310;28;46620;-61
2022/05/04 00:02:57;;;;;;;;;29.75;25.25;;;;;13.97;61.37;101263.78;5057520;28;45442;-58
2022/05/04 00:05:22;;;;;;;;;24.00;22.00;;;;;13.82;61.74;101268.22;5057644;28;45406;-62
2022/05/04 00:07:48;;;;;;;;;28.50;23.25;;;;;13.77;61.79;101264.94;5057653;27;45606;-61
2022/05/04 00:10:14;;;;;;;;;27.50;26.00;;;;;13.77;61.59;101264.94;5057159;28;45475;-62
2022/05/04 00:12:40;;;;;;;;;27.00;26.00;;;;;13.81;61.13;101258.50;5057401;28;45445;-63
2022/05/04 00:15:06;;;;;;;;;26.75;23.75;;;;;13.76;61.76;101252.53;5057525;28;45279;-64
2022/05/04 00:17:31;;;;;;;;;30.25;27.50;;;;;13.70;61.61;101263.59;5073130;28;45330;-62
2022/05/04 00:19:57;;;;;;;;;26.25;22.25;;;;;13.69;62.00;101261.88;5056821;28;46318;-57
2022/05/04 00:22:25;;;;;;;;;29.75;27.00;;;;;13.65;61.72;101252.28;5055854;28;45822;-56
2022/05/04 00:24:51;;;;;;;;;24.50;24.25;;;;;13.65;61.07;101249.63;5057172;28;45417;-58
2022/05/04 00:27:16;;;;;;;;;34.00;27.25;;;;;13.71;60.87;101233.25;5057315;28;44830;-58
2022/05/04 00:29:43;;;;;;;;;30.50;26.50;;;;;13.79;60.43;101244.31;5056960;28;45420;-59
2022/05/04 00:32:10;;;;;;;;;34.00;24.50;;;;;13.86;61.28;101243.03;5057643;28;45410;-53
2022/05/04 00:34:36;;;;;;;;;31.00;27.00;;;;;13.83;61.03;101248.56;5057232;28;45381;-57
2022/05/04 00:37:01;;;;;;;;;32.25;26.50;;;;;13.79;60.75;101220.25;5057225;28;45505;-58
2022/05/04 00:39:27;;;;;;;;;28.50;25.00;;;;;13.81;60.58;101224.59;5056792;28;46334;-57
2022/05/04 00:41:53;;;;;;;;;33.50;23.50;;;;;13.84;61.31;101234.22;5072371;28;45350;-60
2022/05/04 00:44:19;;;;;;;;;26.75;24.00;;;;;13.84;60.25;101228.88;5057048;28;45323;-58
2022/05/04 00:46:44;;;;;;;;;33.00;29.75;;;;;13.85;60.34;101222.59;5057490;28;45353;-57
2022/05/04 00:49:10;;;;;;;;;28.50;27.25;;;;;13.70;60.38;101202.13;5057331;28;46175;-60
2022/05/04 00:51:37;;;;;;;;;28.50;25.25;;;;;13.65;61.12;101222.88;5056308;28;45461;-60
2022/05/04 00:54:03;;;;;;;;;21.75;17.25;;;;;13.57;61.46;101236.72;5056839;28;45346;-61
2022/05/04 00:56:30;;;;;;;;;28.75;27.00;;;;;13.44;62.26;101236.56;5056978;28;45543;-61
2022/05/04 00:58:56;;;;;;;;;28.25;28.25;;;;;13.45;62.17;101238.28;5056480;28;45509;-58
2022/05/04 01:01:27;;;;;;;;;31.75;30.25;;;;;13.44;61.90;101255.28;5056532;28;45342;-57
2022/05/04 01:03:56;;;;;;;;;34.75;23.50;;;;;13.43;62.49;101250.03;5072004;28;45350;-58
2022/05/04 01:06:23;;;;;;;;;35.25;29.25;;;;;13.34;61.97;101245.19;5055271;28;45562;-58
2022/05/04 01:08:49;;;;;;;;;23.00;20.25;;;;;13.39;62.16;101245.78;5054824;28;48395;-51
2022/05/04 01:11:16;;;;;;;;;36.50;29.50;;;;;13.32;62.04;101239.09;5054313;28;45437;-59
2022/05/04 01:13:42;;;;;;;;;36.75;29.00;;;;;13.33;61.97;101241.66;5056483;28;45267;-59
2022/05/04 01:16:08;;;;;;;;;30.50;27.25;;;;;13.33;62.07;101222.97;5056265;28;45682;-59
2022/05/04 01:18:33;;;;;;;;;32.75;31.25;;;;;13.43;62.02;101240.19;5056262;28;45448;-64
2022/05/04 01:20:59;;;;;;;;;35.00;32.75;;;;;13.41;61.59;101235.88;5055510;28;45481;-61
2022/05/04 01:23:27;;;;;;;;;29.00;27.75;;;;;13.47;61.75;101248.88;5056411;27;45453;-62
2022/05/04 01:25:53;;;;;;;;;33.75;24.00;;;;;13.39;62.07;101238.63;5056636;28;45391;-60
2022/05/04 01:28:19;;;;;;;;;32.00;26.25;;;;;13.33;62.62;101233.66;5056118;27;45655;-57
2022/05/04 01:30:45;;;;;;;;;27.50;26.25;;;;;13.33;62.05;101239.00;5056074;28;45319;-60
2022/05/04 01:33:11;;;;;;;;;31.50;28.00;;;;;13.32;62.57;101237.28;5071942;27;45358;-58
2022/05/04 01:35:37;;;;;;;;;26.00;26.00;;;;;13.35;62.21;101246.91;5056205;28;45326;-61
2022/05/04 01:38:02;;;;;;;;;32.00;26.25;;;;;13.35;62.67;101245.09;5054554;28;47570;-55
2022/05/04 01:40:28;;;;;;;;;37.00;32.75;;;;;13.33;62.23;101248.81;5055675;28;45436;-58
2022/05/04 01:42:53;;;;;;;;;27.75;27.25;;;;;13.34;62.61;101245.19;5056025;28;45346;-52
2022/05/04 01:45:19;;;;;;;;;26.50;22.25;;;;;13.30;62.75;101247.19;5056294;28;45317;-58
2022/05/04 01:47:53;;;;;;;;;28.00;25.25;;;;;13.30;62.45;101243.66;5056012;28;45442;-59
2022/05/04 01:50:18;;;;;;;;;34.50;26.75;;;;;13.25;63.28;101247.44;5055868;28;45382;-58
2022/05/04 01:52:44;;;;;;;;;36.00;34.00;;;;;13.17;63.00;101238.13;5071400;27;45444;-62
2022/05/04 01:55:09;;;;;;;;;30.00;24.00;;;;;13.05;62.56;101217.44;5056132;28;45385;-62
2022/05/04 01:57:35;;;;;;;;;27.50;24.00;;;;;13.17;63.33;101249.66;5070962;27;46652;-62
2022/05/04 02:00:01;;;;;;;;;30.25;27.00;;;;;12.98;63.50;101228.44;5055524;28;45370;-63
2022/05/04 02:02:27;;;;;;;;;31.75;27.00;;;;;13.02;63.07;101246.97;5055607;28;45265;-60
2022/05/04 02:04:53;;;;;;;;;35.25;27.25;;;;;13.03;63.01;101244.22;5054536;28;45342;-59
2022/05/04 02:07:19;;;;;;;;;36.50;28.50;;;;;13.06;63.21;101245.88;5070962;28;46249;-60
2022/05/04 02:09:45;;;;;;;;;27.50;25.00;;;;;13.03;62.76;101249.56;5055957;28;45271;-56
2022/05/04 02:12:11;;;;;;;;;30.75;24.75;;;;;12.86;63.86;101255.81;5055730;27;45400;-58
2022/05/04 02:14:36;;;;;;;;;34.50;28.75;;;;;12.78;64.17;101266.09;5054228;28;45424;-59
2022/05/04 02:17:02;;;;;;;;;33.00;29.50;;;;;12.73;63.83;101249.44;5055355;28;45369;-55
2022/05/04 02:19:27;;;;;;;;;33.75;30.50;;;;;12.77;63.81;101248.34;5055450;28;45513;-61
2022/05/04 02:21:53;;;;;;;;;33.00;31.50;;;;;12.65;64.00;101241.00;5053844;28;45875;-64
2022/05/04 02:24:18;;;;;;;;;31.00;24.75;;;;;12.69;63.80;101242.56;5071215;28;45598;-61
2022/05/04 02:26:44;;;;;;;;;26.25;25.75;;;;;12.66;63.72;101237.38;5055287;28;46419;-62
2022/05/04 02:29:09;;;;;;;;;34.50;28.25;;;;;12.68;64.44;101246.16;5070770;27;46386;-56
2022/05/04 02:31:34;;;;;;;;;36.75;31.75;;;;;12.63;64.18;101248.19;5056289;28;45348;-60
2022/05/04 02:34:00;;;;;;;;;30.50;29.75;;;;;12.52;64.80;101246.13;5057712;28;45319;-60
2022/05/04 02:39:09;;;;;;;;;40.00;33.25;;;;;12.59;64.01;101244.00;5059062;28;45436;-60
2022/05/04 02:41:35;;;;;;;;;53.50;38.25;;;;;12.65;64.13;101238.34;5058671;28;45426;-56
2022/05/04 02:44:03;;;;;;;;;92.75;81.00;;;;;12.67;63.90;101247.13;5060314;28;45291;-63
2022/05/04 02:46:30;;;;;;;;;74.00;57.50;;;;;12.58;64.58;101244.94;5058335;28;45457;-57
2022/05/04 02:48:56;;;;;;;;;79.75;61.00;;;;;12.53;63.92;101247.00;5058030;28;45362;-60
2022/05/04 02:51:21;;;;;;;;;94.00;82.50;;;;;12.53;64.35;101241.66;5058768;27;45409;-61
2022/05/04 02:53:47;;;;;;;;;86.00;68.50;;;;;12.51;64.21;101240.88;5059076;28;45456;-56
2022/05/04 02:56:15;;;;;;;;;91.75;78.00;;;;;12.51;64.45;101240.88;5057886;27;45493;-56
2022/05/04 02:58:41;;;;;;;;;103.33;94.67;;;;;12.44;64.62;101243.00;5040370;28;45462;-57
2022/05/04 03:04:04;;;;;;;;;92.50;76.75;;;;;12.58;63.90;101229.78;5058756;28;45351;-60
2022/05/04 03:06:30;;;;;;;;;95.00;84.50;;;;;12.53;63.71;101226.50;5058812;28;46193;-57
2022/05/04 03:08:56;;;;;;;;;80.00;61.75;;;;;12.43;64.19;101225.28;5058528;27;45242;-59
2022/05/04 03:14:07;;;;;;;;;63.50;49.50;;;;;12.39;64.28;101229.94;5058208;28;45515;-54
2022/05/04 03:16:33;;;;;;;;;45.75;37.50;;;;;12.38;64.77;101228.22;5057328;27;46184;-55
2022/05/04 03:18:59;;;;;;;;;38.50;37.50;;;;;12.34;64.36;101226.63;5073974;27;45402;-57
2022/05/04 03:21:24;;;;;;;;;27.25;26.00;;;;;12.30;64.64;101225.06;5057137;28;45375;-59
2022/05/04 03:23:50;;;;;;;;;31.75;29.50;;;;;12.24;64.71;101209.41;5058397;28;45572;-57
2022/05/04 03:26:15;;;;;;;;;41.00;31.25;;;;;12.16;65.05;101219.59;5058020;28;45334;-59
2022/05/04 03:28:41;;;;;;;;;40.25;30.50;;;;;12.13;65.31;101224.25;5057894;28;45326;-62
2022/05/04 03:31:06;;;;;;;;;35.50;31.50;;;;;12.23;64.77;101228.13;5058392;28;45833;-53
2022/05/04 03:33:32;;;;;;;;;36.25;30.50;;;;;12.24;64.54;101220.09;5056813;28;45315;-60
2022/05/04 03:35:57;;;;;;;;;36.25;31.25;;;;;12.15;65.06;101217.88;5057867;28;45378;-59
2022/05/04 03:38:23;;;;;;;;;34.75;30.50;;;;;12.09;64.96;101226.19;5057715;27;45354;-58
2022/05/04 03:40:49;;;;;;;;;36.25;32.25;;;;;12.12;65.14;101218.06;5058423;27;45363;-59
2022/05/04 03:43:14;;;;;;;;;32.25;27.50;;;;;12.05;64.94;101213.97;5057379;27;45512;-57
2022/05/04 03:45:39;;;;;;;;;26.50;24.00;;;;;12.12;64.79;101204.72;5057699;28;46271;-55
2022/05/04 03:48:05;;;;;;;;;29.50;24.25;;;;;12.25;63.76;101216.47;5058082;28;45345;-58
2022/05/04 03:50:30;;;;;;;;;33.50;30.50;;;;;12.20;63.95;101190.97;5057810;28;45337;-61
2022/05/04 03:52:56;;;;;;;;;34.25;30.25;;;;;12.31;64.00;101205.47;5058193;28;45409;-61
2022/05/04 03:55:21;;;;;;;;;29.50;26.00;;;;;12.32;63.70;101223.19;5073313;27;45464;-58
2022/05/04 03:57:47;;;;;;;;;43.25;35.25;;;;;12.27;63.94;101217.25;5056208;28;45482;-62
2022/05/04 04:00:13;;;;;;;;;36.00;28.50;;;;;12.21;64.15;101201.56;5056433;28;45351;-63
2022/05/04 04:02:38;;;;;;;;;31.75;30.75;;;;;12.23;63.79;101210.31;5057841;28;45485;-62
2022/05/04 04:05:04;;;;;;;;;34.75;27.75;;;;;12.27;64.46;101213.72;5057093;28;46103;-62
2022/05/04 04:07:29;;;;;;;;;43.50;32.50;;;;;12.21;64.05;101198.03;5057553;28;45357;-60
2022/05/04 04:09:55;;;;;;;;;37.25;32.00;;;;;12.27;63.81;101200.38;5057477;28;45390;-63
2022/05/04 04:12:21;;;;;;;;;40.25;34.50;;;;;12.41;63.95;101211.16;5057511;28;45532;-59
2022/05/04 04:14:46;;;;;;;;;40.75;29.00;;;;;12.34;64.08;101205.28;5072626;28;46125;-58
2022/05/04 04:17:12;;;;;;;;;32.25;28.75;;;;;12.22;64.53;101200.59;5057063;27;45359;-58
2022/05/04 04:19:37;;;;;;;;;32.75;29.50;;;;;12.34;64.23;101210.63;5073420;28;45784;-64
2022/05/04 04:22:03;;;;;;;;;39.75;29.50;;;;;12.43;64.17;101221.75;5057461;28;45540;-62
2022/05/04 04:24:28;;;;;;;;;38.50;31.00;;;;;12.46;64.23;101230.44;5056858;28;46147;-60
2022/05/04 04:26:54;;;;;;;;;34.25;30.00;;;;;12.28;64.24;101218.97;5056703;28;45371;-53
2022/05/04 04:29:20;;;;;;;;;33.50;31.00;;;;;12.37;64.27;101229.16;5057446;28;45248;-61
2022/05/04 04:31:45;;;;;;;;;36.00;31.25;;;;;12.37;63.84;101215.81;5057128;28;45226;-63
2022/05/04 04:34:11;;;;;;;;;39.50;28.75;;;;;12.51;63.71;101222.22;5056824;28;45400;-59
2022/05/04 04:36:36;;;;;;;;;37.00;31.00;;;;;12.53;63.39;101221.19;5056731;28;45469;-60
2022/05/04 04:39:02;;;;;;;;;30.50;28.75;;;;;12.45;63.53;101207.38;5056629;28;45354;-58
2022/05/04 04:41:28;;;;;;;;;45.00;35.25;;;;;12.53;63.37;101231.00;5055668;28;45348;-62
2022/05/04 04:43:54;;;;;;;;;35.75;31.50;;;;;12.48;63.64;101212.53;5056930;28;45356;-57
2022/05/04 04:46:19;;;;;;;;;41.00;32.50;;;;;12.52;63.55;101218.59;5056890;28;45377;-58
2022/05/04 04:48:44;;;;;;;;;37.75;30.00;;;;;12.40;64.25;101220.13;5072463;27;45412;-55
2022/05/04 04:51:10;;;;;;;;;44.25;35.75;;;;;12.44;64.15;101226.13;5055490;28;45462;-54
2022/05/04 04:53:36;;;;;;;;;46.25;33.00;;;;;12.39;64.62;101221.06;5056348;28;45411;-55
2022/05/04 04:56:01;;;;;;;;;36.00;32.75;;;;;12.49;64.11;101226.75;5055034;28;45362;-52
2022/05/04 04:58:26;;;;;;;;;38.25;26.25;;;;;12.54;63.60;101230.03;5056755;28;45181;-61
2022/05/04 05:00:52;;;;;;;;;29.50;27.50;;;;;12.48;63.38;101228.56;5072308;28;45674;-58
2022/05/04 05:03:17;;;;;;;;;36.00;28.25;;;;;12.58;63.17;101231.59;5056522;28;46000;-61
2022/05/04 05:05:44;;;;;;;;;42.75;33.00;;;;;12.56;63.13;101236.16;5071802;27;45363;-57
2022/05/04 05:08:10;;;;;;;;;35.50;32.00;;;;;12.51;62.64;101244.41;5056539;28;45304;-58
2022/05/04 05:10:36;;;;;;;;;36.25;32.25;;;;;12.45;62.84;101228.72;5056621;28;45770;-61
2022/05/04 05:13:02;;;;;;;;;36.50;30.25;;;;;12.62;62.84;101246.47;5055113;28;47756;-60
2022/05/04 05:18:12;;;;;;;;;36.25;33.00;;;;;12.66;62.35;101242.72;5055664;28;45485;-59
2022/05/04 05:20:38;;;;;;;;;26.50;26.50;;;;;12.66;62.35;101238.25;5056305;28;45437;-62
2022/05/04 05:23:03;;;;;;;;;37.50;33.00;;;;;12.65;62.32;101244.53;5055918;27;45512;-64
2022/05/04 05:25:31;;;;;;;;;31.25;25.50;;;;;12.66;62.10;101240.06;5056164;28;45392;-57
2022/05/04 05:27:57;;;;;;;;;35.25;30.50;;;;;12.56;61.94;101215.66;5055261;28;45430;-58
2022/05/04 05:30:22;;;;;;;;;37.50;34.00;;;;;12.70;61.73;101250.47;5071931;27;45640;-63
2022/05/04 05:32:47;;;;;;;;;35.50;28.75;;;;;12.70;61.67;101239.78;5055996;27;45453;-58
2022/05/04 05:35:13;;;;;;;;;32.50;30.25;;;;;12.78;61.67;101250.06;5056165;28;45397;-59
2022/05/04 05:37:38;;;;;;;;;35.00;31.25;;;;;12.74;61.62;101243.16;5055941;27;45238;-58
2022/05/04 05:40:05;;;;;;;;;32.00;29.25;;;;;12.70;61.53;101252.28;5056508;27;45593;-62
2022/05/04 05:42:32;;;;;;;;;35.25;30.00;;;;;12.65;61.65;101255.22;5054574;28;47878;-57
2022/05/04 05:44:57;;;;;;;;;31.00;26.00;;;;;12.68;61.90;101257.69;5055945;27;45448;-57
2022/05/04 05:47:23;;;;;;;;;31.50;27.75;;;;;12.63;61.81;101257.09;5056184;27;45397;-60
2022/05/04 05:49:48;;;;;;;;;37.25;31.25;;;;;12.75;61.45;101258.22;5056299;28;45453;-55
2022/05/04 05:52:14;;;;;;;;;41.75;29.00;;;;;12.81;61.19;101260.56;5055725;28;46400;-65
2022/05/04 05:54:39;;;;;;;;;35.25;31.00;;;;;12.80;61.33;101264.19;5054489;28;45383;-57
2022/05/04 05:57:05;;;;;;;;;28.00;28.00;;;;;12.85;61.31;101259.44;5054500;28;45347;-62
2022/05/04 05:59:30;;;;;;;;;36.75;27.50;;;;;12.93;60.59;101267.91;5056285;28;45499;-61
2022/05/04 06:01:56;;;;;;;;;32.75;25.50;;;;;12.81;60.52;101263.22;5054859;28;46645;-60
2022/05/04 06:04:21;;;;;;;;;37.00;30.50;;;;;12.67;61.26;101261.31;5055730;28;45435;-60
2022/05/04 06:06:47;;;;;;;;;38.25;33.25;;;;;12.65;61.39;101262.34;5057057;28;45275;-62
2022/05/04 06:09:12;;;;;;;;;35.75;30.50;;;;;12.62;61.28;101252.69;5058114;28;45343;-63
2022/05/04 06:11:38;;;;;;;;;41.75;31.75;;;;;12.81;61.17;101267.72;5057219;28;45613;-54
2022/05/04 06:14:03;;;;;;;;;34.25;29.75;;;;;12.64;61.39;101256.16;5058958;28;45326;-63
2022/05/04 06:16:29;;;;;;;;;31.25;29.25;;;;;12.60;61.76;101273.25;5059414;28;45283;-62
2022/05/04 06:18:54;;;;;;;;;34.00;28.50;;;;;12.75;61.33;101276.03;5059186;27;45358;-59
2022/05/04 06:21:20;;;;;;;;;26.00;26.00;;;;;12.78;60.68;101266.09;5058500;28;45418;-60
2022/05/04 06:23:46;;;;;;;;;39.75;30.25;;;;;12.88;60.60;101277.94;5058629;28;45231;-55
2022/05/04 06:26:13;;;;;;;;;40.50;27.50;;;;;12.89;60.66;101287.72;5058786;27;45282;-61
2022/05/04 06:28:38;;;;;;;;;20.75;19.00;;;;;12.96;60.50;101288.22;5057928;28;45674;-60
2022/05/04 06:34:06;;;;;;;;;32.75;27.00;;;;;12.74;61.06;101282.31;5058717;28;45436;-56
2022/05/04 06:36:32;;;;;;;;;33.25;27.75;;;;;12.66;61.31;101291.63;5058984;27;45308;-58
2022/05/04 06:38:58;;;;;;;;;32.75;31.25;;;;;12.75;61.10;101295.59;5074771;27;45831;-66
2022/05/04 06:41:23;;;;;;;;;34.25;28.75;;;;;12.83;61.13;101298.72;5058515;28;45527;-53
2022/05/04 06:43:49;;;;;;;;;37.50;30.50;;;;;13.06;60.84;101289.44;5058418;28;45459;-56
2022/05/04 06:46:15;;;;;;;;;33.75;30.25;;;;;13.08;60.08;101265.31;5058225;28;45516;-58
2022/05/04 06:48:41;;;;;;;;;22.25;21.25;;;;;13.22;59.99;101273.47;5057026;28;45339;-57
2022/05/04 06:51:07;;;;;;;;;37.50;31.75;;;;;13.39;59.62;101269.81;5058126;28;45646;-57
2022/05/04 06:53:33;;;;;;;;;36.25;33.25;;;;;13.48;59.78;101275.50;5073801;27;45375;-61
2022/05/04 06:55:59;;;;;;;;;41.25;36.75;;;;;13.60;59.80;101267.75;5058659;28;45232;-57
2022/05/04 06:58:25;;;;;;;;;41.50;35.25;;;;;13.57;59.32;101266.97;5058715;27;45564;-67
2022/05/04 07:00:50;;;;;;;;;36.00;26.50;;;;;13.63;59.24;101264.88;5056527;28;45359;-62
2022/05/04 07:03:16;;;;;;;;;41.00;35.75;;;;;13.81;59.19;101271.84;5056209;28;45362;-64
2022/05/04 07:05:41;;;;;;;;;36.75;35.50;;;;;13.95;58.46;101279.06;5058195;28;45283;-64
2022/05/04 07:08:07;;;;;;;;;41.25;31.25;;;;;14.00;58.23;101280.50;5058457;28;45206;-59
2022/05/04 07:10:32;;;;;;;;;36.75;33.50;;;;;13.96;58.34;101273.63;5057877;28;46128;-58
2022/05/04 07:12:58;;;;;;;;;42.75;35.00;;;;;14.06;58.22;101276.59;5058123;28;45347;-62
2022/05/04 07:15:23;;;;;;;;;40.50;33.75;;;;;14.14;57.89;101280.53;5071985;28;45421;-58
2022/05/04 07:17:48;;;;;;;;;40.00;35.00;;;;;14.15;57.94;101281.38;5057522;27;45523;-63
2022/05/04 07:20:14;;;;;;;;;44.00;34.75;;;;;14.16;57.67;101278.63;5057923;27;45426;-58
2022/05/04 07:22:39;;;;;;;;;37.00;30.25;;;;;14.25;57.64;101290.59;5058203;27;45488;-58
2022/05/04 07:25:05;;;;;;;;;36.75;31.25;;;;;14.26;57.63;101286.09;5058165;28;45464;-55
2022/05/04 07:27:31;;;;;;;;;39.00;33.50;;;;;14.24;58.24;101291.56;5057211;28;45695;-58
2022/05/04 07:29:56;;;;;;;;;46.25;36.00;;;;;14.21;58.03;101283.72;5056461;28;46978;-58
2022/05/04 07:32:22;;;;;;;;;41.25;34.50;;;;;14.36;57.45;101296.16;5057706;28;45243;-53
2022/05/04 07:34:48;;;;;;;;;39.75;35.50;;;;;14.39;57.49;101295.09;5058231;27;45285;-53
2022/05/04 07:37:13;;;;;;;;;49.25;36.50;;;;;14.45;57.15;101302.78;5056915;27;45555;-58
2022/05/04 07:42:26;;;;;;;;;40.00;33.50;;;;;14.48;57.38;101310.66;5057922;28;45485;-60
2022/05/04 07:45:04;;;;;;;;;33.25;32.25;;;;;14.43;57.33;101318.03;5057512;28;45437;-54
2022/05/04 07:47:32;;;;;;;;;41.00;36.75;;;;;14.24;57.03;101302.25;5073334;27;45444;-60
2022/05/04 07:49:58;;;;;;;;;39.50;33.75;;;;;14.23;57.60;101310.38;5072631;28;47079;-62
2022/05/04 07:52:24;;;;;;;;;39.00;30.50;;;;;14.33;57.80;101315.09;5055623;28;45379;-58
2022/05/04 07:54:50;;;;;;;;;44.50;35.50;;;;;14.21;57.63;101290.88;5073228;28;45272;-61
2022/05/04 07:57:15;;;;;;;;;31.50;27.50;;;;;14.32;57.74;101301.78;5057450;28;45636;-57
2022/05/04 07:59:41;;;;;;;;;36.00;32.50;;;;;14.32;57.27;101301.78;5057263;28;45407;-61
2022/05/04 08:04:51;;;;;;;;;39.25;34.25;;;;;14.29;58.00;101310.00;5057804;28;45381;-53
2022/05/04 08:07:19;;;;;;;;;40.25;34.50;;;;;14.23;57.92;101299.66;5057863;27;45279;-56
2022/05/04 08:09:45;;;;;;;;;40.00;34.00;;;;;14.45;57.56;101305.47;5057552;28;46191;-64
2022/05/04 08:12:12;;;;;;;;;41.00;35.50;;;;;14.53;57.43;101311.22;5057110;27;45294;-58
2022/05/04 08:14:41;;;;;;;;;43.75;34.00;;;;;14.55;56.85;101311.13;5072800;27;45303;-58
2022/05/04 08:17:07;;;;;;;;;38.00;32.75;;;;;14.59;57.46;101318.88;5057195;28;45532;-64
2022/05/04 08:19:33;;;;;;;;;34.00;26.50;;;;;14.80;56.65;101305.97;5072759;27;48298;-58
2022/05/04 08:21:59;;;;;;;;;47.25;37.00;;;;;14.91;56.02;101322.25;5072428;28;45394;-58
2022/05/04 08:24:25;;;;;;;;;34.50;31.50;;;;;14.95;55.80;101325.56;5057049;28;45401;-59
2022/05/04 08:26:50;;;;;;;;;42.50;32.75;;;;;14.99;56.09;101322.63;5057503;28;45500;-59
2022/05/04 08:29:17;;;;;;;;;40.00;35.50;;;;;15.09;55.80;101322.88;5056786;27;45394;-58
2022/05/04 08:31:59;;;;;;;;;42.50;34.50;;;;;15.10;55.92;101315.72;5057767;28;45569;-61
2022/05/04 08:34:25;;;;;;;;;42.00;34.50;;;;;15.10;55.35;101315.72;5057743;28;45412;-63
2022/05/04 08:36:51;;;;;;;;;46.50;37.25;;;;;14.99;55.54;101314.59;5055576;28;45440;-59
2022/05/04 08:39:16;;;;;;;;;39.50;34.50;;;;;15.08;55.86;101315.81;5057063;28;45499;-59
2022/05/04 08:41:43;;;;;;;;;46.75;37.00;;;;;15.16;56.24;101313.50;5072522;28;45287;-63
2022/05/04 08:44:11;;;;;;;;;38.75;33.75;;;;;15.30;55.31;101312.63;5056843;28;45245;-62
2022/05/04 08:46:44;;;;;;;;;44.50;36.50;;;;;15.48;55.48;101313.25;5072627;28;45532;-56
2022/05/04 08:49:12;;;;;;;;;34.00;33.50;;;;;15.66;54.87;101309.41;5055282;28;45521;-58
2022/05/04 08:51:39;;;;;;;;;42.00;36.00;;;;;15.84;54.17;101313.56;5056492;28;45476;-57
2022/05/04 08:54:06;;;;;;;;;32.00;30.75;;;;;16.00;54.22;101312.53;5072269;27;45470;-57
2022/05/04 08:56:33;;;;;;;;;38.25;31.00;;;;;16.20;53.86;101301.31;5057224;28;45256;-60
2022/05/04 08:59:02;;;;;;;;;35.50;31.50;;;;;16.59;52.84;101315.63;5056530;28;45286;-58
2022/05/04 09:01:28;;;;;;;;;43.00;34.75;;;;;16.67;52.05;101313.28;5056523;28;45398;-58
2022/05/04 09:03:54;;;;;;;;;32.00;29.33;;;;;16.86;51.52;101311.03;5056456;28;45333;-57
2022/05/04 09:06:30;;;;;;;;;40.00;36.00;;;;;17.10;51.35;101306.59;5038277;28;45435;-59
2022/05/04 09:09:03;;;;;;;;;43.33;34.33;;;;;17.39;49.45;101304.47;5071618;28;45407;-60
2022/05/04 09:11:29;;;;;;;;;40.25;34.25;;;;;17.50;49.29;101310.91;5055941;28;45440;-59
2022/05/04 09:13:55;;;;;;;;;36.33;33.67;;;;;17.96;49.83;101319.13;5055220;28;45416;-61
2022/05/04 09:16:26;;;;;;;;;31.00;31.00;;;;;18.19;48.89;101315.53;5055212;27;45465;-59
2022/05/04 09:18:51;;;;;;;;;37.33;34.33;;;;;18.30;47.99;101316.56;5056176;27;45634;-55
2022/05/04 09:21:23;;;;;;;;;30.00;28.33;;;;;18.62;48.38;101316.75;5054813;28;45266;-56
2022/05/04 09:23:53;;;;;;;;;41.00;33.33;;;;;18.95;46.32;101308.72;5054945;28;45193;-58
2022/05/04 09:26:20;;;;;;;;;29.33;25.67;;;;;19.15;45.81;101317.94;5056642;28;45378;-59
2022/05/04 09:29:06;;;;;;;;;34.33;33.33;;;;;19.45;46.04;101310.03;5054667;27;45605;-57
2022/05/04 09:31:32;;;;;;;;;40.33;33.33;;;;;19.53;43.42;101320.22;5054616;28;45419;-64
2022/05/04 09:34:00;;;;;;;;;33.67;30.33;;;;;19.54;43.73;101308.44;5056319;28;45453;-58
2022/05/04 09:36:33;;;;;;;;;36.00;33.67;;;;;19.83;44.14;101306.03;5056942;27;45631;-55
2022/05/04 09:44:54;;;;;;;;;31.00;28.67;;;;;20.59;41.85;101288.72;5055825;28;45405;-54
2022/05/04 09:47:21;;;;;;;;;36.67;33.00;;;;;20.37;41.79;101287.97;5056147;28;45775;-58
2022/05/04 09:49:48;;;;;;;;;27.00;24.00;;;;;20.45;42.92;101285.50;5071238;28;45468;-56
2022/05/04 09:52:15;;;;;;;;;36.67;33.00;;;;;20.43;41.48;101274.81;5071247;28;45399;-57
2022/05/04 09:54:41;;;;;;;;;35.67;33.00;;;;;20.05;42.30;101267.25;5055890;27;45259;-59
2022/05/04 09:57:07;;;;;;;;;39.67;34.00;;;;;19.71;42.65;101282.78;5056089;28;45250;-60
2022/05/04 09:59:34;;;;;;;;;39.67;30.67;;;;;19.60;43.11;101278.25;5054078;28;47598;-58
2022/05/04 10:02:03;;;;;;;;;35.33;30.33;;;;;19.80;44.07;101279.31;5055400;28;45526;-64
2022/05/04 10:04:32;;;;;;;;;27.67;25.67;;;;;20.23;43.66;101281.91;5055622;28;45429;-59
2022/05/04 10:06:57;;;;;;;;;31.67;29.00;;;;;20.43;41.98;101285.63;5055851;28;45532;-55
2022/05/04 10:09:23;;;;;;;;;35.00;30.33;;;;;20.57;42.00;101282.59;5054551;28;46586;-57
2022/05/04 10:11:59;;;;;;;;;26.33;26.33;;;;;20.63;41.31;101283.91;5055702;27;45441;-58
2022/05/04 10:14:26;;;;;;;;;36.00;31.00;;;;;20.73;41.90;101270.44;5055934;27;45441;-61
2022/05/04 10:16:58;;;;;;;;;30.67;28.67;;;;;20.99;41.33;101269.00;5055460;28;45622;-53
2022/05/04 10:19:27;;;;;;;;;30.67;27.00;;;;;21.03;40.60;101265.00;5055746;27;46388;-61
2022/05/04 10:21:57;;;;;;;;;34.67;28.33;;;;;20.63;39.72;101274.94;5055520;28;45247;-60
2022/05/04 10:24:25;;;;;;;;;28.67;28.67;;;;;20.29;41.28;101280.53;5055875;28;45247;-57
2022/05/04 10:27:01;;;;;;;;;27.00;27.00;;;;;20.18;40.89;101269.78;5055990;28;45301;-58
2022/05/04 10:32:28;;;;;;;;;27.67;26.33;;;;;19.78;42.01;101269.59;5055158;28;45417;-62
2022/05/04 10:35:22;;;;;;;;;33.00;31.33;;;;;19.76;42.32;101294.03;5070858;28;45342;-57
2022/05/04 10:37:54;;;;;;;;;37.33;30.33;;;;;19.53;42.37;101286.94;5055288;28;45283;-61
2022/05/04 10:40:29;;;;;;;;;30.33;27.67;;;;;19.44;42.81;101284.03;5070615;27;47452;-58
2022/05/04 10:43:01;;;;;;;;;31.67;29.67;;;;;19.45;43.11;101291.16;5055041;27;45321;-62
2022/05/04 10:45:33;;;;;;;;;34.00;25.67;;;;;19.35;43.34;101298.28;5070560;27;45749;-61
2022/05/04 10:48:20;;;;;;;;;31.67;28.67;;;;;19.39;43.75;101291.63;5055349;28;45488;-63
2022/05/04 10:51:09;;;;;;;;;31.33;29.33;;;;;19.34;44.11;101293.00;5070243;28;45520;-62
2022/05/04 10:53:37;;;;;;;;;34.33;32.00;;;;;19.38;43.95;101295.31;5032154;28;45589;-62
2022/05/04 10:56:06;;;;;;;;;29.67;26.00;;;;;19.29;43.68;101289.84;5038265;28;45457;-64
2022/05/04 10:58:39;;;;;;;;;30.33;26.67;;;;;19.37;43.54;101293.59;5038239;28;45295;-60
2022/05/04 11:01:12;;;;;;;;;27.00;21.67;;;;;19.56;43.28;101292.16;5053279;28;47159;-55
2022/05/04 11:03:50;;;;;;;;;28.33;24.00;;;;;19.63;42.92;101298.72;5054228;27;45469;-60
2022/05/04 11:06:22;;;;;;;;;25.33;23.33;;;;;19.43;42.78;101290.44;5036488;28;45379;-63
2022/05/04 11:08:48;;;;;;;;;28.00;26.33;;;;;19.42;42.75;101291.41;5056869;27;45542;-56
2022/05/04 11:11:14;;;;;;;;;29.67;27.00;;;;;19.57;42.88;101291.16;5056430;28;48037;-55
2022/05/04 11:13:43;;;;;;;;;17.00;13.33;;;;;19.57;42.59;101285.75;5058345;28;45425;-59
2022/05/04 11:16:09;;;;;;;;;23.00;21.33;;;;;19.42;42.56;101285.16;5056909;27;45659;-62
2022/05/04 11:18:35;;;;;;;;;27.00;19.67;;;;;19.51;42.69;101281.69;5056671;28;45338;-63
2022/05/04 11:21:05;;;;;;;;;23.33;18.33;;;;;19.70;41.94;101271.13;5057416;28;45924;-61
2022/05/04 11:23:31;;;;;;;;;21.33;17.00;;;;;19.76;41.38;101269.72;5056190;28;45382;-61
2022/05/04 11:25:56;;;;;;;;;18.00;17.33;;;;;19.87;40.68;101280.50;5056664;28;45571;-59
2022/05/04 11:28:25;;;;;;;;;13.33;11.67;;;;;19.83;41.32;101260.16;5058246;28;45556;-60
2022/05/04 11:30:54;;;;;;;;;13.00;13.00;;;;;20.00;40.36;101251.47;5058044;28;45411;-61
2022/05/04 11:33:21;;;;;;;;;17.33;15.33;;;;;20.15;39.57;101259.25;5057083;27;45451;-65
2022/05/04 11:35:55;;;;;;;;;12.00;12.00;;;;;20.19;39.86;101255.31;5057926;27;45810;-61